메인 페이지
METAR-TAF:

METAR-TAF

공항 :

베이루트, 레바논

위도: 33-49N, 경도: 035-29E, 고도: 29m

현재 날씨관측

예보는 35분 전, 10:00시(UTC)에 발표되었습니다.
4kt동남동풍과 서남서풍을 오가는
온도 19°C
습도 78%
기압 1017 hPa
시정: 7000m
고도 2600ft 상공 구름 많음

METAR: OLBA 161000Z 17004KT 120V240 7000 RA BKN026 19/15 Q1017 RERA NOSIG

시각: 12:35 (10:35 UTC)

예보

예보는 12 시간 35분 전, 22:00시(UTC)에 발표되었습니다.
예보 대상 시간: 16일 00시부터 17일 06시까지 (UTC)
남서15kt
시정: 6000m
고도 2300ft 상공 구름 많음
일시적
16일 00시부터 16일 12시까지 (UTC)
남서15kt, 순간 최대 풍속 35kt
시정: 3000m
고도 2000ft 상공 구름 조금, 적란운.
고도 2300ft 상공 구름 많음
뇌우, 비
전환 중
16일 18시부터 16일 21시까지 (UTC)
남동8kt
고도 3000ft 상공 구름 보통
고도 20000ft 상공 구름 보통

TAF: OLBA 152200Z 1600/1706 23015KT 6000 RA BKN023 TEMPO 1600/1612 23015G35KT 3000 TSRA FEW020CB BKN023 BECMG 1618/1621 14008KT SCT030 SCT200

4,000개 이상의 공항 관측 자료 및 예보 (METAR 및 TAF 보고).

지도상에서 검색 가능한 기상관측소가 노란 점과 빨간 점으로 표시되어 있습니다.

기상관측소 명을 보려면 표시 위로 마우스를 이동하세요.

날씨 관측과 예보를 보려면 클릭하세요.

지도 변경 : 확대하려면 엑스 표시가 있는 녹색 버튼, 축소하려면 빼기 표시가 있는 녹색 버튼, 다음 페이지의 지도를 보려면 녹색 화살표를 클릭하세요.


METAR-TAF: